Time;durP1;ratioP1;P1;durP2;ratioP2;P2;SDS_P1;SDS_P2;PMS_P1;PMS_P2;Temp;Humidity;BMP_temperature;BMP_pressure;BME280_temperature;BME280_humidity;BME280_pressure;Samples;Min_cycle;Max_cycle;Signal;HPM_P1;HPM_P2
2023/09/07 00:01:21;;;;;;;13.30;8.65;;;;;;;20.21;66.52;98133.03;10499588;27;20079;-54
2023/09/07 00:06:20;;;;;;;11.82;8.65;;;;;;;20.33;67.50;98158.13;10497672;27;20070;-54
2023/09/07 00:11:20;;;;;;;14.10;9.32;;;;;;;20.28;67.97;98151.25;10503540;27;20525;-54
2023/09/07 00:16:19;;;;;;;19.33;10.07;;;;;;;20.15;68.51;98130.63;10521349;27;20443;-54
2023/09/07 00:21:18;;;;;;;17.02;9.23;;;;;;;19.87;68.64;98095.53;10495530;27;20497;-54
2023/09/07 00:26:18;;;;;;;14.05;9.40;;;;;;;20.09;69.13;98123.78;10495990;27;20157;-54
2023/09/07 00:31:20;;;;;;;11.40;8.82;;;;;;;20.12;69.26;98134.22;10528735;27;20066;-54
2023/09/07 00:36:19;;;;;;;16.45;9.02;;;;;;;20.24;69.27;98149.63;10495465;27;20051;-54
2023/09/07 00:41:18;;;;;;;11.35;8.32;;;;;;;20.29;68.56;98158.22;10525424;27;20497;-54
2023/09/07 00:46:18;;;;;;;13.90;8.70;;;;;;;20.27;68.08;98154.78;10519319;27;20063;-54
2023/09/07 00:51:19;;;;;;;13.85;8.30;;;;;;;20.19;68.48;98153.31;10538155;27;20750;-54
2023/09/07 00:56:21;;;;;;;11.57;9.18;;;;;;;20.18;68.55;98155.09;10535037;27;20059;-54
2023/09/07 01:01:22;;;;;;;10.43;8.07;;;;;;;20.18;67.43;98144.53;10493682;27;20067;-54
2023/09/07 01:06:32;;;;;;;13.00;8.23;;;;;;;20.16;68.13;98140.25;10494419;27;20066;-54
2023/09/07 01:11:37;;;;;;;14.60;8.95;;;;;;;20.07;68.34;98147.56;10515549;27;20074;-54
2023/09/07 01:16:38;;;;;;;14.82;9.35;;;;;;;19.91;69.97;98151.59;10516029;27;20062;-54
2023/09/07 01:21:38;;;;;;;13.98;9.77;;;;;;;19.65;70.83;98131.38;10535330;27;20051;-54
2023/09/07 01:26:38;;;;;;;13.38;10.38;;;;;;;19.77;71.20;98148.56;10533492;27;20098;-54
2023/09/07 01:31:38;;;;;;;16.27;9.88;;;;;;;19.75;71.38;98151.22;10533789;27;20047;-54
2023/09/07 01:36:37;;;;;;;15.70;8.57;;;;;;;19.70;71.07;98147.88;10491205;27;20514;-54
2023/09/07 01:41:36;;;;;;;11.30;7.93;;;;;;;19.75;70.30;98153.00;10528617;27;20070;-55
2023/09/07 01:46:38;;;;;;;10.32;7.30;;;;;;;19.68;69.59;98136.53;10533872;27;20110;-54
2023/09/07 01:51:37;;;;;;;13.45;8.45;;;;;;;19.75;69.40;98151.22;10534982;27;20054;-54
2023/09/07 01:56:37;;;;;;;15.55;8.10;;;;;;;19.72;69.25;98147.81;10491146;27;20031;-54
2023/09/07 02:01:37;;;;;;;14.20;8.15;;;;;;;19.64;69.33;98137.53;10527505;27;20047;-54
2023/09/07 02:06:36;;;;;;;11.07;7.68;;;;;;;19.64;69.42;98154.19;10533705;27;20051;-55
2023/09/07 02:11:35;;;;;;;13.27;8.35;;;;;;;19.64;69.41;98150.69;10510860;27;20046;-54
2023/09/07 02:16:35;;;;;;;13.75;8.77;;;;;;;19.62;69.71;98150.75;10493121;27;20131;-55
2023/09/07 02:21:34;;;;;;;12.48;7.25;;;;;;;19.57;70.19;98157.06;10531567;27;20131;-54
2023/09/07 02:26:33;;;;;;;10.80;7.47;;;;;;;19.54;70.47;98162.41;10534903;27;20111;-54
2023/09/07 02:31:32;;;;;;;10.93;8.15;;;;;;;19.31;70.31;98124.47;10535923;27;20027;-54
2023/09/07 02:36:31;;;;;;;14.50;7.85;;;;;;;19.48;70.67;98157.31;10535016;27;20054;-54
2023/09/07 02:41:31;;;;;;;10.77;8.23;;;;;;;19.39;70.70;98148.81;10534481;27;20055;-54
2023/09/07 02:46:30;;;;;;;15.45;7.85;;;;;;;19.28;71.07;98136.88;10534906;27;20153;-54
2023/09/07 02:51:29;;;;;;;12.95;8.38;;;;;;;19.40;70.29;98168.09;10533718;27;20031;-54
2023/09/07 02:56:28;;;;;;;11.40;7.70;;;;;;;19.37;70.26;98166.41;10534042;27;20054;-54
2023/09/07 03:01:27;;;;;;;12.55;8.35;;;;;;;19.32;70.63;98170.94;10508992;27;20110;-54
2023/09/07 03:06:26;;;;;;;13.90;8.27;;;;;;;19.26;71.12;98167.63;10521823;27;20126;-54
2023/09/07 03:11:25;;;;;;;16.48;9.20;;;;;;;19.20;71.91;98171.28;10519299;27;20053;-54
2023/09/07 03:16:24;;;;;;;14.10;9.00;;;;;;;19.20;72.11;98176.53;10506428;27;20063;-55
2023/09/07 03:21:29;;;;;;;13.48;8.40;;;;;;;18.61;72.11;98074.78;10542454;27;20027;-54
2023/09/07 03:26:27;;;;;;;10.75;7.60;;;;;;;19.21;71.11;98175.66;10521877;27;20826;-54
2023/09/07 03:31:26;;;;;;;11.40;7.80;;;;;;;19.08;70.28;98159.34;10540773;27;20738;-54
2023/09/07 03:36:25;;;;;;;11.38;7.53;;;;;;;19.08;70.68;98180.41;10540545;27;20469;-54
2023/09/07 03:41:30;;;;;;;18.27;9.93;;;;;;;19.01;71.14;98179.69;10542501;27;20134;-54
2023/09/07 03:46:29;;;;;;;17.80;12.68;;;;;;;19.05;73.23;98192.78;10540423;27;20065;-54
2023/09/07 03:51:28;;;;;;;15.75;12.13;;;;;;;19.05;74.85;98196.28;10539607;27;20050;-54
2023/09/07 03:56:27;;;;;;;15.95;11.65;;;;;;;19.03;75.63;98198.09;10540454;27;20046;-54
2023/09/07 04:01:26;;;;;;;14.85;10.18;;;;;;;18.94;76.16;98199.19;10497003;27;20150;-54
2023/09/07 04:06:25;;;;;;;13.32;9.73;;;;;;;19.01;75.54;98205.16;10537351;27;20054;-54
2023/09/07 04:11:24;;;;;;;12.70;9.07;;;;;;;18.98;74.98;98210.50;10501212;27;20059;-54
2023/09/07 04:16:23;;;;;;;17.58;10.07;;;;;;;18.95;74.86;98221.97;10519237;27;20039;-54
2023/09/07 04:21:21;;;;;;;14.77;9.70;;;;;;;18.96;74.83;98228.94;10541943;27;20034;-54
2023/09/07 04:26:20;;;;;;;13.75;10.07;;;;;;;18.95;74.39;98216.72;10502392;27;20860;-54
2023/09/07 04:31:20;;;;;;;13.65;9.82;;;;;;;18.75;74.56;98192.72;10540444;27;20492;-54
2023/09/07 04:36:19;;;;;;;15.02;8.77;;;;;;;18.99;74.34;98228.88;10522632;27;20059;-54
2023/09/07 04:41:18;;;;;;;11.75;8.13;;;;;;;19.08;73.09;98237.41;10543389;27;20035;-54
2023/09/07 04:46:21;;;;;;;17.40;9.57;;;;;;;19.08;73.33;98237.41;10535490;27;20038;-54
2023/09/07 04:51:22;;;;;;;17.15;9.85;;;;;;;19.10;73.47;98243.50;10531482;27;20054;-54
2023/09/07 04:56:21;;;;;;;14.50;9.75;;;;;;;19.15;74.01;98245.09;10520620;27;20059;-54
2023/09/07 05:01:20;;;;;;;16.52;9.85;;;;;;;19.33;73.67;98248.97;10530176;27;20051;-54
2023/09/07 05:06:19;;;;;;;18.60;9.13;;;;;;;19.52;71.96;98253.72;10507062;27;20138;-54
2023/09/07 05:11:18;;;;;;;18.02;10.30;;;;;;;19.66;71.02;98247.16;10516926;27;20060;-54
2023/09/07 05:16:17;;;;;;;16.42;9.65;;;;;;;19.82;70.10;98246.72;10515288;27;20114;-54
2023/09/07 05:21:16;;;;;;;16.13;8.45;;;;;;;19.82;68.54;98215.97;10532708;27;20035;-55
2023/09/07 05:26:21;;;;;;;13.73;8.25;;;;;;;20.11;68.50;98226.50;10521393;27;20538;-55
2023/09/07 05:31:20;;;;;;;11.38;7.15;;;;;;;20.60;65.73;98246.84;10517551;27;20062;-54
2023/09/07 05:36:19;;;;;;;11.32;7.13;;;;;;;20.66;65.06;98259.84;10516545;27;20043;-54
2023/09/07 05:41:18;;;;;;;12.63;7.40;;;;;;;20.80;64.83;98243.56;10516087;27;20113;-54
2023/09/07 05:46:17;;;;;;;19.05;7.72;;;;;;;20.98;62.66;98234.13;10519089;27;20055;-54
2023/09/07 05:51:15;;;;;;;12.48;7.90;;;;;;;20.92;61.22;98261.59;10512964;27;20464;-54
2023/09/07 05:56:14;;;;;;;16.63;7.80;;;;;;;20.96;63.23;98265.00;10491526;27;20027;-54
2023/09/07 06:01:13;;;;;;;10.95;7.55;;;;;;;21.01;63.08;98247.22;10531777;27;20122;-55
2023/09/07 06:06:12;;;;;;;8.07;6.13;;;;;;;21.15;57.91;98238.81;10500184;27;20076;-54
2023/09/07 06:11:11;;;;;;;9.77;5.95;;;;;;;21.24;56.51;98258.75;10520271;27;20114;-54
2023/09/07 06:16:10;;;;;;;8.32;6.07;;;;;;;21.02;56.74;98256.00;10527322;27;20489;-54
2023/09/07 06:21:09;;;;;;;9.00;6.53;;;;;;;21.19;55.08;98223.72;10535937;27;20105;-54
2023/09/07 06:26:08;;;;;;;13.90;6.85;;;;;;;21.36;56.61;98231.91;10532188;27;20032;-54
2023/09/07 06:31:07;;;;;;;9.50;6.32;;;;;;;21.59;55.29;98264.50;10530354;27;20037;-54
2023/09/07 06:36:06;;;;;;;11.48;6.43;;;;;;;21.71;53.78;98253.47;10536162;27;20099;-55
2023/09/07 06:41:07;;;;;;;8.73;6.90;;;;;;;21.96;54.61;98269.25;10498514;27;20112;-55
2023/09/07 06:46:07;;;;;;;8.15;6.07;;;;;;;22.17;51.37;98268.44;10539224;27;20062;-55
2023/09/07 06:51:08;;;;;;;11.75;6.03;;;;;;;22.33;50.74;98271.34;10538505;27;20070;-55
2023/09/07 06:56:07;;;;;;;9.68;6.00;;;;;;;22.11;51.72;98223.75;10521909;27;20649;-55
2023/09/07 07:01:06;;;;;;;7.78;6.00;;;;;;;22.41;50.35;98263.06;10508020;27;20059;-55
2023/09/07 07:06:05;;;;;;;10.88;5.97;;;;;;;21.86;50.70;98238.84;10502486;27;20119;-55
2023/09/07 07:11:04;;;;;;;9.05;6.22;;;;;;;21.94;51.24;98274.63;10546539;27;20065;-55
2023/09/07 07:16:04;;;;;;;10.05;6.20;;;;;;;21.88;52.19;98251.06;10544465;27;20019;-55
2023/09/07 07:21:03;;;;;;;9.32;6.10;;;;;;;21.96;51.21;98270.09;10544627;27;20489;-54
2023/09/07 07:26:02;;;;;;;11.85;6.38;;;;;;;22.07;51.81;98282.94;10541210;27;20490;-54
2023/09/07 07:31:09;;;;;;;10.65;6.28;;;;;;;22.34;52.55;98274.81;10536243;27;20022;-55
2023/09/07 07:36:08;;;;;;;11.27;6.45;;;;;;;22.60;51.97;98271.16;10538968;27;20054;-55
2023/09/07 07:41:07;;;;;;;10.48;6.38;;;;;;;22.29;50.28;98266.22;10541043;27;20062;-55
2023/09/07 07:46:08;;;;;;;15.63;6.95;;;;;;;22.44;50.97;98267.41;10540911;27;20110;-55
2023/09/07 07:51:08;;;;;;;9.85;6.32;;;;;;;22.46;51.76;98228.50;10510854;27;20063;-54
2023/09/07 07:56:18;;;;;;;9.00;6.97;;;;;;;23.00;51.41;98264.19;10519070;27;20043;-54
2023/09/07 08:01:18;;;;;;;8.93;6.53;;;;;;;23.00;50.22;98269.50;10532351;27;20066;-55
2023/09/07 08:06:17;;;;;;;12.82;6.70;;;;;;;22.97;50.01;98273.09;10535288;27;20061;-55
2023/09/07 08:11:16;;;;;;;8.75;6.20;;;;;;;23.17;50.13;98271.41;10519260;27;20043;-55
2023/09/07 08:16:15;;;;;;;9.07;5.85;;;;;;;23.48;50.36;98270.06;10538283;27;20051;-54
2023/09/07 08:21:15;;;;;;;9.80;6.43;;;;;;;23.73;48.67;98269.81;10533216;27;20127;-55
2023/09/07 08:26:14;;;;;;;13.35;6.57;;;;;;;23.76;48.41;98261.72;10534623;27;20110;-54
2023/09/07 08:31:20;;;;;;;10.95;6.00;;;;;;;23.92;47.83;98260.06;10539411;27;20055;-54
2023/09/07 08:36:22;;;;;;;10.57;6.40;;;;;;;23.68;47.11;98255.88;10527334;27;20072;-54
2023/09/07 08:41:21;;;;;;;12.60;6.35;;;;;;;23.63;47.26;98254.34;10538152;27;20066;-54
2023/09/07 08:46:22;;;;;;;7.85;5.80;;;;;;;23.91;47.73;98247.75;10528636;27;20118;-55
2023/09/07 08:51:22;;;;;;;7.95;5.55;;;;;;;23.94;46.30;98241.44;10533992;27;20548;-54
2023/09/07 08:56:22;;;;;;;8.95;5.95;;;;;;;24.01;47.14;98233.13;10537968;27;20063;-54
2023/09/07 09:01:21;;;;;;;8.65;6.03;;;;;;;24.12;46.00;98234.38;10535014;27;20452;-54
2023/09/07 09:06:22;;;;;;;11.40;5.53;;;;;;;24.07;45.61;98200.13;10536988;27;20126;-54
2023/09/07 09:11:22;;;;;;;9.60;5.90;;;;;;;24.49;44.86;98234.31;10514536;27;20074;-54
2023/09/07 09:16:21;;;;;;;8.82;5.60;;;;;;;24.51;44.05;98206.88;10498528;27;20685;-55
2023/09/07 09:21:25;;;;;;;10.35;5.45;;;;;;;24.57;43.60;98214.53;10532842;27;20050;-54
2023/09/07 09:26:24;;;;;;;8.38;5.40;;;;;;;24.78;42.69;98223.16;10527915;27;20115;-54
2023/09/07 09:31:24;;;;;;;8.13;5.43;;;;;;;25.01;42.90;98214.94;10520647;27;20050;-54
2023/09/07 09:36:23;;;;;;;8.90;5.10;;;;;;;24.96;42.21;98208.13;10522830;27;21604;-54
2023/09/07 09:41:23;;;;;;;8.35;5.32;;;;;;;24.55;43.73;98196.03;10516692;27;20528;-54
2023/09/07 09:46:24;;;;;;;8.27;5.53;;;;;;;24.69;42.16;98197.97;10533753;27;20118;-54
2023/09/07 09:51:24;;;;;;;9.18;5.82;;;;;;;24.98;40.93;98203.59;10514469;27;20086;-54
2023/09/07 09:56:26;;;;;;;8.60;5.30;;;;;;;25.05;40.40;98162.50;10518658;27;20118;-54
2023/09/07 10:01:25;;;;;;;9.10;5.90;;;;;;;25.16;39.46;98162.78;10511716;27;20062;-54
2023/09/07 10:06:25;;;;;;;7.68;4.75;;;;;;;25.83;39.65;98170.66;10513289;27;20071;-54
2023/09/07 10:11:37;;;;;;;7.18;4.90;;;;;;;25.81;39.74;98092.78;10502810;27;20059;-54
2023/09/07 10:16:46;;;;;;;7.68;4.82;;;;;;;26.11;39.09;98140.69;10504265;27;20146;-54
2023/09/07 10:21:45;;;;;;;7.80;5.15;;;;;;;25.93;38.61;98135.50;10519846;27;20106;-54
2023/09/07 10:26:44;;;;;;;7.32;5.13;;;;;;;26.03;39.04;98173.03;10519640;27;20925;-54
2023/09/07 10:31:51;;;;;;;11.57;8.15;;;;;;;25.37;39.27;98138.66;10521329;27;21397;-55
2023/09/07 10:36:56;;;;;;;8.68;6.07;;;;;;;25.57;39.80;98159.69;10536261;27;20043;-55
2023/09/07 10:41:55;;;;;;;11.30;5.45;;;;;;;25.68;38.41;98121.88;10534648;27;20093;-55
2023/09/07 10:46:56;;;;;;;6.18;4.53;;;;;;;25.68;38.55;98103.28;10533711;27;20038;-55
2023/09/07 10:51:55;;;;;;;7.65;5.00;;;;;;;26.25;37.96;98161.19;10532797;27;20117;-55
2023/09/07 10:56:57;;;;;;;8.15;5.65;;;;;;;26.31;38.24;98155.53;10535218;27;20062;-54
2023/09/07 11:02:04;;;;;;;7.93;5.80;;;;;;;25.99;38.22;98101.50;10535756;27;20046;-54
2023/09/07 11:07:04;;;;;;;10.55;5.85;;;;;;;25.97;37.66;98120.19;10521660;27;20500;-54
2023/09/07 11:12:06;;;;;;;7.45;5.10;;;;;;;26.15;38.39;98150.19;10502705;27;20071;-54
2023/09/07 11:17:05;;;;;;;8.75;5.20;;;;;;;26.37;38.53;98141.88;10491891;27;20438;-54
2023/09/07 11:22:05;;;;;;;8.07;5.60;;;;;;;26.68;37.77;98132.03;10489957;27;20780;-55
2023/09/07 11:27:04;;;;;;;8.23;4.80;;;;;;;26.46;36.92;98074.75;10497424;27;20067;-55
2023/09/07 11:32:11;;;;;;;7.00;4.82;;;;;;;26.39;37.41;98078.75;10496803;27;20073;-55
2023/09/07 11:37:10;;;;;;;8.95;5.13;;;;;;;26.84;36.50;98084.91;10525389;27;20058;-54
2023/09/07 11:42:09;;;;;;;8.88;5.40;;;;;;;27.01;37.30;98109.66;10525545;27;21640;-55
2023/09/07 11:47:08;;;;;;;6.32;4.90;;;;;;;27.08;36.97;98106.50;10540307;27;20548;-54
2023/09/07 11:52:07;;;;;;;7.15;4.90;;;;;;;27.30;36.30;98105.97;10539606;27;20046;-55
2023/09/07 11:57:06;;;;;;;8.60;5.47;;;;;;;27.72;35.85;98096.19;10540319;27;20119;-55
2023/09/07 12:02:06;;;;;;;8.32;5.70;;;;;;;27.86;35.38;98084.63;10528983;27;22438;-55
2023/09/07 12:07:05;;;;;;;8.18;5.65;;;;;;;28.04;35.63;98090.56;10548658;27;20069;-55
2023/09/07 12:12:04;;;;;;;7.60;5.50;;;;;;;28.07;35.79;98082.38;10532178;27;20047;-55
2023/09/07 12:17:04;;;;;;;8.27;5.78;;;;;;;27.89;34.52;98046.22;10541573;27;20049;-55
2023/09/07 12:22:03;;;;;;;11.32;6.00;;;;;;;27.63;34.71;98035.47;10541549;27;20069;-55
2023/09/07 12:27:02;;;;;;;9.32;5.50;;;;;;;27.70;35.03;98075.94;10527825;27;20055;-55
2023/09/07 12:32:01;;;;;;;6.30;5.28;;;;;;;27.49;35.58;98063.03;10538853;27;20125;-55
2023/09/07 12:37:01;;;;;;;8.88;5.50;;;;;;;27.26;35.76;98069.84;10542149;27;20027;-55
2023/09/07 12:42:01;;;;;;;9.07;5.95;;;;;;;27.24;35.46;98021.13;10539158;27;20055;-55
2023/09/07 12:47:00;;;;;;;10.68;6.10;;;;;;;27.61;35.38;98064.94;10539974;27;20051;-55
2023/09/07 12:52:00;;;;;;;6.53;5.00;;;;;;;27.64;34.79;98063.88;10540244;27;20037;-55
2023/09/07 12:56:59;;;;;;;8.95;5.97;;;;;;;27.58;34.75;98061.59;10504903;27;20081;-55
2023/09/07 13:01:58;;;;;;;8.77;6.20;;;;;;;27.69;34.41;98059.06;10523100;27;20105;-55
2023/09/07 13:06:57;;;;;;;11.82;5.82;;;;;;;27.77;35.16;98056.75;10521895;27;20055;-55
2023/09/07 13:11:56;;;;;;;12.18;5.78;;;;;;;27.73;34.75;98073.03;10513457;27;20057;-55
2023/09/07 13:16:55;;;;;;;7.93;5.78;;;;;;;27.67;34.14;98074.31;10533869;27;20039;-56
2023/09/07 13:21:54;;;;;;;8.48;5.63;;;;;;;27.62;35.56;98071.09;10527388;27;20110;-55
2023/09/07 13:26:52;;;;;;;7.25;5.50;;;;;;;27.49;35.34;98073.69;10493173;27;20122;-55
2023/09/07 13:31:53;;;;;;;6.55;5.47;;;;;;;27.20;35.73;98070.22;10493006;27;20118;-55
2023/09/07 13:36:53;;;;;;;8.10;5.75;;;;;;;27.30;35.69;98066.00;10491169;27;20530;-55
2023/09/07 13:41:52;;;;;;;8.50;5.85;;;;;;;27.36;35.56;98067.44;10528392;27;20126;-55
2023/09/07 13:46:53;;;;;;;7.95;5.43;;;;;;;27.23;35.43;98072.69;10534887;27;20055;-55
2023/09/07 13:51:52;;;;;;;8.38;5.93;;;;;;;27.12;35.89;98062.72;10537469;27;20126;-55
2023/09/07 13:56:51;;;;;;;9.88;6.00;;;;;;;26.98;35.43;98050.28;10530475;27;20118;-55
2023/09/07 14:01:51;;;;;;;9.55;6.20;;;;;;;26.77;36.07;98056.94;10536567;27;20023;-55
2023/09/07 14:06:50;;;;;;;9.77;6.28;;;;;;;26.46;36.77;98050.81;10537643;27;20059;-55
2023/09/07 14:11:49;;;;;;;9.25;5.78;;;;;;;26.82;36.76;98059.31;10512123;27;20130;-55
2023/09/07 14:16:50;;;;;;;14.00;5.75;;;;;;;27.09;35.99;98052.25;10537782;27;20031;-55
2023/09/07 14:21:48;;;;;;;9.95;5.85;;;;;;;26.94;36.17;98051.41;10537893;27;20043;-55
2023/09/07 14:26:47;;;;;;;10.88;5.72;;;;;;;26.62;36.23;98049.88;10533387;27;20473;-55
2023/09/07 14:31:47;;;;;;;7.05;5.22;;;;;;;26.67;36.54;98040.66;10535801;27;20477;-55
2023/09/07 14:36:46;;;;;;;9.23;5.75;;;;;;;26.38;36.96;98005.19;10534800;27;20047;-55
2023/09/07 14:41:45;;;;;;;12.15;6.10;;;;;;;26.48;37.23;98035.59;10533685;27;20062;-55
2023/09/07 14:46:44;;;;;;;8.10;5.63;;;;;;;26.49;36.75;98000.06;10534641;27;20031;-55
2023/09/07 14:51:44;;;;;;;9.20;6.35;;;;;;;26.60;36.42;98041.13;10534029;27;20096;-55
2023/09/07 14:56:43;;;;;;;9.13;6.03;;;;;;;26.37;36.40;98030.09;10536912;27;20043;-55
2023/09/07 15:01:42;;;;;;;11.40;6.35;;;;;;;26.43;36.97;98047.50;10540316;27;20439;-55
2023/09/07 15:06:41;;;;;;;9.27;5.63;;;;;;;26.32;37.21;98050.78;10546804;27;20055;-55
2023/09/07 15:11:40;;;;;;;9.07;6.60;;;;;;;26.01;37.43;98039.31;10509887;27;20514;-55
2023/09/07 15:16:39;;;;;;;10.57;5.82;;;;;;;26.14;37.94;98042.09;10503346;27;20114;-55
2023/09/07 15:21:38;;;;;;;8.05;6.13;;;;;;;25.91;36.93;98035.47;10534202;27;20484;-55
2023/09/07 15:26:42;;;;;;;8.07;5.93;;;;;;;26.09;37.53;98042.38;10511649;27;20070;-55
2023/09/07 15:31:41;;;;;;;10.77;7.95;;;;;;;26.17;37.63;98048.06;10544510;27;20639;-55
2023/09/07 15:36:42;;;;;;;10.98;6.75;;;;;;;25.95;37.40;98005.13;10543358;27;20676;-55
2023/09/07 15:41:41;;;;;;;11.05;6.72;;;;;;;26.21;37.97;98042.63;10520520;27;20078;-55
2023/09/07 15:46:41;;;;;;;10.88;6.10;;;;;;;26.17;37.50;98042.75;10512175;27;20061;-55
2023/09/07 15:51:40;;;;;;;7.40;5.88;;;;;;;25.77;38.23;98008.84;10529278;27;20047;-55
2023/09/07 15:56:40;;;;;;;9.18;6.82;;;;;;;25.84;38.11;98044.78;10540921;27;20026;-55
2023/09/07 16:01:39;;;;;;;11.02;6.28;;;;;;;25.71;38.33;98029.53;10547374;27;20051;-55
2023/09/07 16:06:38;;;;;;;11.70;7.00;;;;;;;25.58;38.53;98025.88;10543268;27;20125;-55
2023/09/07 16:11:37;;;;;;;11.98;6.63;;;;;;;25.37;38.53;98040.34;10535395;27;20528;-55
2023/09/07 16:16:37;;;;;;;12.60;6.53;;;;;;;25.29;38.40;98036.34;10527327;27;20026;-55
2023/09/07 16:21:35;;;;;;;12.75;6.65;;;;;;;25.30;39.14;98048.66;10533642;27;20065;-55
2023/09/07 16:26:35;;;;;;;9.68;6.30;;;;;;;25.01;38.73;98021.09;10536260;27;20035;-55
2023/09/07 16:31:34;;;;;;;12.98;7.35;;;;;;;25.11;39.05;98053.31;10528937;27;20114;-55
2023/09/07 16:36:33;;;;;;;12.23;7.20;;;;;;;24.93;39.37;98041.88;10513012;27;20066;-55
2023/09/07 16:41:32;;;;;;;12.13;7.63;;;;;;;25.08;40.23;98058.75;10535286;27;20150;-55
2023/09/07 16:46:31;;;;;;;11.73;6.57;;;;;;;24.93;40.53;98041.88;10531730;27;20089;-55
2023/09/07 16:51:30;;;;;;;9.90;6.47;;;;;;;24.96;41.62;98062.09;10528598;27;20512;-55
2023/09/07 16:56:29;;;;;;;12.90;6.68;;;;;;;24.82;42.73;98068.13;10514899;27;20077;-55
2023/09/07 17:01:28;;;;;;;15.20;8.07;;;;;;;24.66;43.82;98073.38;10535667;27;20109;-55
2023/09/07 17:06:27;;;;;;;13.35;7.13;;;;;;;24.53;44.26;98081.16;10510764;27;20879;-55
2023/09/07 17:11:26;;;;;;;13.80;7.85;;;;;;;24.37;44.14;98075.78;10523755;27;20763;-55
2023/09/07 17:16:25;;;;;;;11.95;7.40;;;;;;;24.26;45.18;98089.59;10503869;27;20118;-55
2023/09/07 17:21:24;;;;;;;11.05;6.97;;;;;;;24.16;46.00;98093.63;10514024;27;20618;-55
2023/09/07 17:26:23;;;;;;;14.20;9.00;;;;;;;23.99;46.62;98107.72;10535458;27;20035;-54
2023/09/07 17:31:23;;;;;;;16.75;8.57;;;;;;;23.82;47.01;98097.13;10533574;27;20051;-54
2023/09/07 17:36:24;;;;;;;15.68;7.65;;;;;;;23.73;46.97;98109.03;10510943;27;20457;-55
2023/09/07 17:41:32;;;;;;;12.93;7.95;;;;;;;23.54;47.15;98122.28;10532066;27;20054;-55
2023/09/07 17:46:31;;;;;;;13.15;8.27;;;;;;;23.33;47.05;98123.28;10533341;27;20050;-55
2023/09/07 17:51:32;;;;;;;16.08;8.65;;;;;;;22.84;47.54;98064.69;10531634;27;20027;-55
2023/09/07 17:56:31;;;;;;;16.15;8.32;;;;;;;23.09;47.89;98112.91;10524633;27;20047;-55
2023/09/07 18:01:30;;;;;;;13.30;9.43;;;;;;;23.06;47.83;98130.69;10491529;27;20490;-55
2023/09/07 18:06:29;;;;;;;12.25;9.05;;;;;;;22.77;48.19;98094.03;10492494;27;20062;-55
2023/09/07 18:11:28;;;;;;;13.52;8.95;;;;;;;22.79;48.58;98123.94;10492293;27;20043;-54
2023/09/07 18:16:27;;;;;;;12.68;7.85;;;;;;;22.48;49.19;98097.06;10499260;27;20106;-55
2023/09/07 18:21:26;;;;;;;11.48;7.90;;;;;;;22.54;49.50;98118.84;10480042;28;20059;-54
2023/09/07 18:26:25;;;;;;;11.48;7.35;;;;;;;22.59;49.69;98137.16;10493408;27;20069;-54
2023/09/07 18:31:24;;;;;;;15.90;7.82;;;;;;;22.55;49.62;98141.72;10525599;27;20110;-54
2023/09/07 18:36:23;;;;;;;15.90;8.13;;;;;;;22.32;50.23;98128.59;10533548;27;20059;-54
2023/09/07 18:41:22;;;;;;;13.95;7.70;;;;;;;22.39;51.27;98149.47;10531563;27;20123;-54
2023/09/07 18:46:21;;;;;;;12.30;8.70;;;;;;;21.98;51.74;98095.66;10534384;27;20042;-54
2023/09/07 18:51:20;;;;;;;16.15;8.88;;;;;;;22.19;52.45;98154.72;10509990;27;20063;-54
2023/09/07 18:56:19;;;;;;;11.48;8.20;;;;;;;22.02;53.21;98154.56;10525475;27;20026;-54
2023/09/07 19:01:18;;;;;;;11.20;8.25;;;;;;;21.88;53.12;98158.59;10540349;27;20051;-54
2023/09/07 19:06:17;;;;;;;11.07;8.32;;;;;;;21.74;53.98;98163.56;10517499;27;20098;-54
2023/09/07 19:11:16;;;;;;;14.52;8.55;;;;;;;21.59;54.67;98170.28;10503739;27;20509;-54
2023/09/07 19:16:16;;;;;;;13.00;8.85;;;;;;;21.21;54.96;98137.44;10510644;27;20046;-54
2023/09/07 19:21:17;;;;;;;13.13;8.60;;;;;;;21.19;55.97;98163.84;10500249;27;20111;-54
2023/09/07 19:26:26;;;;;;;13.73;8.43;;;;;;;21.04;56.33;98177.63;10505891;27;20058;-54
2023/09/07 19:31:25;;;;;;;12.30;8.23;;;;;;;20.93;56.59;98185.94;10496883;27;20553;-54
2023/09/07 19:36:26;;;;;;;14.50;8.60;;;;;;;20.85;57.65;98188.00;10515500;27;20055;-54
2023/09/07 19:41:29;;;;;;;15.60;9.18;;;;;;;20.61;58.68;98179.16;10492273;27;20106;-53
2023/09/07 19:46:28;;;;;;;11.30;8.18;;;;;;;20.20;59.42;98162.94;10506857;27;20154;-54
2023/09/07 19:51:27;;;;;;;15.02;7.65;;;;;;;20.37;58.76;98191.38;10512790;27;20118;-54
2023/09/07 19:56:26;;;;;;;10.85;7.32;;;;;;;20.37;57.98;98186.97;10513864;27;20024;-54
2023/09/07 20:01:25;;;;;;;11.43;7.38;;;;;;;20.38;57.83;98187.84;10533189;27;20069;-53
2023/09/07 20:06:25;;;;;;;13.18;7.78;;;;;;;20.27;57.64;98162.69;10510778;27;20036;-53
2023/09/07 20:11:24;;;;;;;10.80;7.95;;;;;;;20.48;57.77;98189.28;10490575;27;20574;-53
2023/09/07 20:16:23;;;;;;;13.32;8.63;;;;;;;20.36;58.13;98189.66;10492997;27;20561;-53
2023/09/07 20:21:22;;;;;;;13.88;8.45;;;;;;;20.28;58.00;98193.41;10493591;27;20023;-53
2023/09/07 20:26:21;;;;;;;11.93;7.47;;;;;;;19.21;57.80;98018.66;10493351;27;20031;-55
2023/09/07 20:31:19;;;;;;;14.70;8.30;;;;;;;20.06;58.10;98166.91;10491292;27;20039;-53
2023/09/07 20:36:18;;;;;;;9.55;7.53;;;;;;;20.23;57.98;98195.31;10495707;27;20557;-53
2023/09/07 20:41:17;;;;;;;11.45;7.28;;;;;;;19.78;57.97;98134.47;10491227;27;20058;-54
2023/09/07 20:46:16;;;;;;;12.30;7.13;;;;;;;20.18;57.49;98191.97;10494461;27;20030;-54
2023/09/07 20:51:16;;;;;;;11.88;7.90;;;;;;;20.18;57.18;98191.97;10509683;27;20067;-54
2023/09/07 20:56:15;;;;;;;11.75;7.88;;;;;;;20.07;57.52;98194.09;10512487;27;20054;-54
2023/09/07 21:01:14;;;;;;;10.85;7.45;;;;;;;19.92;57.21;98163.84;10490866;27;20051;-54
2023/09/07 21:06:13;;;;;;;13.65;7.70;;;;;;;20.09;57.03;98179.09;10491730;27;20532;-54
2023/09/07 21:11:12;;;;;;;10.98;7.72;;;;;;;20.04;57.12;98178.41;10490238;27;20126;-54
2023/09/07 21:16:11;;;;;;;11.50;6.95;;;;;;;19.60;57.12;98120.09;10491917;27;20127;-54
2023/09/07 21:21:09;;;;;;;12.98;7.32;;;;;;;19.92;57.38;98179.66;10489780;27;20024;-54
2023/09/07 21:26:09;;;;;;;9.32;7.32;;;;;;;19.64;57.13;98138.38;10474244;27;20032;-54
2023/09/07 21:31:09;;;;;;;11.48;7.35;;;;;;;19.77;57.70;98175.75;10489613;27;20899;-54
2023/09/07 21:36:08;;;;;;;10.18;7.57;;;;;;;19.55;58.97;98154.44;10495818;27;20063;-54
2023/09/07 21:41:07;;;;;;;12.82;7.70;;;;;;;19.53;59.57;98179.09;10489684;27;20450;-54
2023/09/07 21:46:06;;;;;;;10.40;7.00;;;;;;;19.26;59.75;98157.09;10530534;27;20797;-54
2023/09/07 21:51:07;;;;;;;13.02;7.07;;;;;;;19.04;59.70;98128.78;10509876;27;20494;-54
2023/09/07 21:56:06;;;;;;;12.07;6.93;;;;;;;19.23;60.30;98176.47;10489637;27;20059;-54
2023/09/07 22:01:05;;;;;;;12.52;7.40;;;;;;;19.11;60.65;98174.19;10490628;27;20096;-55
2023/09/07 22:06:05;;;;;;;13.18;7.93;;;;;;;18.81;61.01;98145.25;10494795;27;20047;-54
2023/09/07 22:11:04;;;;;;;11.68;7.90;;;;;;;18.86;61.97;98180.16;10491197;27;20135;-54
2023/09/07 22:16:03;;;;;;;12.52;7.55;;;;;;;18.76;62.28;98182.16;10488990;27;20028;-54
2023/09/07 22:21:03;;;;;;;9.25;6.70;;;;;;;18.64;62.64;98181.59;10488590;27;20099;-54
2023/09/07 22:26:02;;;;;;;12.45;8.07;;;;;;;18.01;63.05;98088.66;10488907;27;20107;-54
2023/09/07 22:31:01;;;;;;;10.13;7.40;;;;;;;18.30;63.32;98164.94;10490756;27;20023;-54
2023/09/07 22:36:00;;;;;;;10.25;7.60;;;;;;;18.21;64.06;98148.56;10492060;27;20051;-54
2023/09/07 22:40:59;;;;;;;11.38;7.47;;;;;;;18.20;64.01;98168.72;10491480;27;20046;-54
2023/09/07 22:45:58;;;;;;;11.70;7.43;;;;;;;18.12;64.76;98175.91;10491425;27;20027;-54
2023/09/07 22:50:57;;;;;;;10.05;6.97;;;;;;;18.02;65.05;98171.78;10506852;27;20027;-54
2023/09/07 22:55:56;;;;;;;10.07;6.50;;;;;;;17.74;65.22;98144.38;10530272;27;20062;-54
2023/09/07 23:00:56;;;;;;;9.88;6.85;;;;;;;17.92;64.62;98174.63;10490472;27;20078;-54